KFAY/FAY METAR and TAF weather

Enter ICAO airport designator
Station Type Date Time Source
KFAY METAR 2024/02/26 17:53 UTC NOAA

KFAY 261753Z 21010G22KT 10SM CLR 20/02 A3012 RMK AO2 SLP196 T02000022 10200 20067 58016


Station Type Date Time Source
KFAY Decoded METAR 2024/02/26 17:53 UTC NOAA

FAYETTEVILLE REGIONAL AIRPORT , NC, United States (KFAY) 34-59N 078-53W 55M
Feb 26, 2024 - 12:53 PM EST / 2024.02.26 1753 UTC
Wind: from the SSW (210 degrees) at 12 MPH (10 KT) gusting to 25 MPH (22 KT):0
Visibility: 10 mile(s):0
Sky conditions: clear
Temperature: 68.0 F (20.0 C)
Dew Point: 36.0 F (2.2 C)
Relative Humidity: 30%
Pressure (altimeter): 30.12 in. Hg (1019 hPa)
Pressure tendency: 0.05 inches (1.6 hPa) lower than three hours ago
ob: KFAY 261753Z 21010G22KT 10SM CLR 20/02 A3012 RMK AO2 SLP196 T02000022 10200 20067 58016
cycle: 18

Station Type Date Time Source
KFAY TAF 2024/02/26 18:42 UTC NOAA